• Join FlightAware (Why Join?)
  • Login
  • US Flag 
06:35AM EDT


 

Airport Tracker/Info


-or-


 

Live Flight TrackerFlight Track Log ✈ DAL3672 ✈ 19-Apr-2013 ✈ KMHT - KDTW

Flight Track Log - Related Links

Times and Time Zones

All times are in EDT time to prevent confusion due to time zone crossing. See the DAL3672 flight status page for this flight to view local times or setup timezone preferences in your user account.

Time Position Orientation Groundspeed Altitude Reporting Facility
EDT Latitude Longitude Course Direction KTS MPH feet Rate Location/Type
12:31PM 42.9167 -71.4833 304° West 216 249 3,500  Level KA90
12:32PM 42.9342 -71.4958 332° Northwest 234 269 4,100 2,100 Climbing Boston Center
12:33PM 42.9386 -71.7971 279° West  Level FlightAware Approximate
12:33PM 42.9889 -71.5489 325° Northwest 274 315 6,100  Level Boston Center
12:34PM 42.9500 -71.9185 270° West  Level FlightAware Approximate
12:34PM 43.0394 -71.6192 315° West 275 316 8,500  Level Boston Center
12:35PM 42.9500 -72.0410 270° West  Level FlightAware Approximate
12:35PM 43.0400 -71.7186 270° West 249 287 10,500  Level Boston Center
12:36PM 42.9500 -72.1635 270° West  Level FlightAware Approximate
12:36PM 43.0469 -71.8292 275° West 284 327 11,400  Level Boston Center
12:37PM 43.0517 -71.9569 273° West 329 379 12,700 1,320 Climbing Boston Center
12:38PM 43.0583 -72.0819 274° West 329 379 14,100 1,620 Climbing Boston Center
12:39PM 43.0650 -72.2100 274° West 335 386 15,900 1,500 Climbing Boston Center
12:40PM 43.0694 -72.3378 273° West 335 386 17,100 1,140 Climbing Boston Center
12:41PM 43.0756 -72.4686 274° West 341 392 18,300 960 Climbing Boston Center
12:42PM 43.0858 -72.5794 277° West 341 392 19,100 840 Climbing Boston Center
12:43PM 43.0836 -72.7158 269° West 351 404 20,100 960 Climbing Boston Center
12:44PM 43.0875 -72.8553 272° West 356 410 21,100 900 Climbing Boston Center
12:45PM 43.0911 -72.9889 272° West 361 415 22,000 900 Climbing Boston Center
12:46PM 43.1006 -73.1425 275° West 366 421 23,000 960 Climbing Boston Center
12:47PM 43.1039 -73.2675 272° West 366 421 23,900 480 Climbing Boston Center
12:48PM 43.1069 -73.4156 272° West 366 421 24,000  Climbing Boston Center
12:49PM 43.1097 -73.5606 272° West 371 427 24,000 120 Level Boston Center
12:50PM 43.1164 -73.7086 274° West 376 433 24,300 600 Climbing Boston Center
12:51PM 43.1189 -73.8536 271° West 382 440 25,300 900 Climbing Boston Center
12:52PM 43.1231 -74.0217 272° West 382 440 26,300 780 Climbing Boston Center
12:53PM 43.1272 -74.1583 272° West 376 433 27,100 600 Climbing Boston Center
12:54PM 43.1314 -74.3036 272° West 376 433 27,600 420 Climbing Boston Center
12:55PM 43.1353 -74.4403 272° West 371 427 28,000 180 Climbing Boston Center
12:56PM 43.1367 -74.5856 271° West 371 427 28,000  Level Boston Center
12:57PM 43.1422 -74.7308 273° West 383 441 28,000  Level Boston Center
12:58PM 43.1433 -74.8789 271° West 389 448 28,000  Level Boston Center
12:59PM 43.1464 -75.0297 272° West 394 453 28,000  Level Boston Center
01:00PM 43.1503 -75.2122 272° West 399 459 28,000 -540 Level Boston Center
01:01PM 43.1506 -75.3658 270° West 405 466 26,900 -960 Descending Boston Center
01:02PM 43.1531 -75.5111 271° West 410 472 26,100 -480 Descending Boston Center
01:03PM 43.1569 -75.6736 272° West 425 489 26,000 -60 Descending Boston Center
01:04PM 43.1586 -75.8303 271° West 425 489 26,000  Level Boston Center
01:06PM 43.1594 -76.1058 270° West 423 487 26,000  Level Cleveland Center
01:07PM 43.1547 -76.2597 268° West 423 487 26,000  Level Cleveland Center
01:08PM 43.1417 -76.4144 263° West 417 480 26,000  Level Cleveland Center
01:09PM 43.1303 -76.5661 264° West 412 474 26,000  Level Cleveland Center
01:10PM 43.1167 -76.7119 263° West 407 468 26,000  Level Cleveland Center
01:11PM 43.1028 -76.8664 263° West 407 468 26,000  Level Cleveland Center
01:12PM 43.0872 -77.0353 263° West 414 476 26,000  Level Cleveland Center
01:13PM 43.0753 -77.1867 264° West 414 476 26,000  Level Cleveland Center
01:14PM 43.0608 -77.3381 263° West 408 470 26,000  Level Cleveland Center
01:15PM 43.0461 -77.4894 262° West 408 470 26,000  Level Cleveland Center
01:16PM 43.0333 -77.6406 263° West 408 470 26,000  Level Cleveland Center
01:17PM 43.0183 -77.7919 262° West 408 470 26,000  Level Cleveland Center
01:18PM 43.0033 -77.9431 262° West 408 470 26,000  Level Cleveland Center
01:19PM 42.9878 -78.0942 262° West 408 470 26,000  Level Cleveland Center
01:20PM 42.9722 -78.2450 262° West 408 470 26,000  Level Cleveland Center
01:21PM 42.9564 -78.3961 262° West 408 470 26,000  Level Cleveland Center
01:22PM 42.9403 -78.5469 262° West 408 470 26,000  Level Cleveland Center
01:23PM 42.9222 -78.6978 261° West 408 470 26,000  Level Cleveland Center
01:24PM 42.9017 -78.8514 260° West 408 470 26,000  Level Cleveland Center
01:25PM 42.8789 -79.0022 258° West 408 470 26,000  Level Cleveland Center
01:26PM 42.8597 -79.1500 260° West 408 470 26,000  Level Cleveland Center
01:27PM 42.8386 -79.3033 259° West 413 475 26,000  Level Cleveland Center
01:28PM 42.8131 -79.4539 257° West 413 475 26,000  Level Cleveland Center
01:29PM 42.7917 -79.6014 259° West 413 475 26,000  Level Cleveland Center
01:30PM 42.7678 -79.7489 258° West 413 475 26,000  Level Cleveland Center
01:31PM 42.7519 -79.8989 262° West 413 475 26,000  Level Cleveland Center
01:32PM 42.7425 -80.0347 265° West 413 475 26,000  Level Cleveland Center
01:33PM 42.7347 -80.1819 266° West 399 459 26,000  Level Cleveland Center
01:34PM 42.7308 -80.3289 268° West 392 451 26,000  Level Cleveland Center
01:35PM 42.7247 -80.4731 267° West 387 445 26,000  Level Cleveland Center
01:36PM 42.7186 -80.6256 267° West 380 437 26,000 -60 Level Cleveland Center
01:37PM 42.7122 -80.7669 267° West 380 437 25,900 -840 Descending Cleveland Center
01:38PM 42.7036 -80.9139 265° West 387 445 24,400 -1,200 Descending Cleveland Center
01:39PM 42.6886 -81.0492 261° West 387 445 23,500 -960 Descending Cleveland Center
01:40PM 42.6756 -81.1706 262° West 357 411 22,500 -1,020 Descending Cleveland Center
01:41PM 42.6622 -81.2833 261° West 320 368 21,500 -780 Descending Cleveland Center
01:42PM 42.6492 -81.3906 261° West 301 346 21,000 -300 Descending Cleveland Center
01:43PM 42.6358 -81.5003 261° West 296 341 21,000  Level Cleveland Center
01:44PM 42.6222 -81.6131 261° West 301 346 21,000  Level Cleveland Center
01:45PM 42.6108 -81.7228 262° West 301 346 21,000  Level Cleveland Center
01:46PM 42.5972 -81.8214 259° West 296 341 21,000  Level Cleveland Center
01:47PM 42.5856 -81.9311 262° West 296 341 21,000  Level Cleveland Center
01:48PM 42.5719 -82.0381 260° West 296 341 21,000 -600 Level Cleveland Center
01:49PM 42.5581 -82.1475 260° West 296 341 19,800 -1,800 Descending Cleveland Center
01:49PM 42.5531 -82.2067 263° West 291 335 18,400 -2,640 Descending Cleveland Center
01:50PM 42.5433 -82.2853 260° West 255 293 16,500 -1,860 Descending Cleveland Center
01:51PM 42.5342 -82.3442 258° West 276 318 15,600 -1,620 Descending Cleveland Center
01:51PM 42.5294 -82.3836 261° West 269 310 14,900 -1,620 Descending Cleveland Center
01:52PM 42.5181 -82.4453 256° West 276 318 14,000 -1,800 Descending Cleveland Center
01:52PM 42.5153 -82.4931 266° West 277 319 13,100 -1,920 Descending Cleveland Center
01:53PM 42.5058 -82.5461 256° West 276 318 12,100 -1,200 Descending Cleveland Center
01:53PM 42.4928 -82.5908 248° West 271 312 11,900 -720 Descending Cleveland Center
01:54PM 42.4753 -82.6353 242° Southwest 271 312 11,400 -1,020 Descending Cleveland Center
01:54PM 42.4578 -82.6856 245° Southwest 260 299 10,800 -1,140 Descending Cleveland Center
01:55PM 42.4250 -82.7631 240° Southwest 219 252 9,800 -900 Descending Cleveland Center
01:56PM 42.4078 -82.7936 233° Southwest 253 291 9,400 -1,020 Descending Cleveland Center
01:56PM 42.4067 -82.8469 268° West 255 293 8,800 -1,020 Descending Cleveland Center
01:57PM 42.4164 -82.8781 293° West 219 252 8,400 -1,320 Descending Cleveland Center
01:57PM 42.4550 -82.9247 318° Northwest 268 308 7,500 -1,500 Descending Cleveland Center
01:58PM 42.4692 -82.9478 310° West 219 252 6,900 -1,680 Descending Cleveland Center
01:58PM 42.4872 -82.9878 301° West 226 260 6,000 -900 Descending Cleveland Center
01:59PM 42.4925 -83.0244 281° West 224 258 6,000  Level Cleveland Center
01:59PM 42.5000 -83.0756 281° West 227 261 6,000 60 Level Cleveland Center
02:00PM 42.4814 -83.1342 247° West 150 173 6,100 60 Climbing FAA TRACON SMA TRACON (SMA)
02:01PM 42.4703 -83.1472 221° Southwest 146 168 6,100 -180 Level FAA TRACON SMA TRACON (SMA)
02:01PM 42.4600 -83.1553 210° Southwest 147 169 6,000  Descending FAA TRACON SMA TRACON (SMA)
02:01PM 42.4497 -83.1644 213° Southwest 142 163 6,100 -180 Climbing FAA TRACON SMA TRACON (SMA)
02:02PM 42.4378 -83.1722 206° Southwest 145 167 5,900 -900 Descending FAA TRACON SMA TRACON (SMA)
02:02PM 42.4236 -83.1831 209° Southwest 147 169 5,500 -1,080 Descending FAA TRACON SMA TRACON (SMA)
02:02PM 42.4119 -83.1917 209° Southwest 143 165 5,200 -780 Descending FAA TRACON SMA TRACON (SMA)
02:03PM 42.4019 -83.1994 210° Southwest 142 163 5,000 -780 Descending FAA TRACON SMA TRACON (SMA)
02:03PM 42.3889 -83.2092 209° Southwest 147 169 4,700 -780 Descending FAA TRACON SMA TRACON (SMA)
02:03PM 42.3783 -83.2169 209° Southwest 145 167 4,500 -900 Descending FAA TRACON SMA TRACON (SMA)
02:04PM 42.3664 -83.2261 210° Southwest 139 160 4,100 -900 Descending FAA TRACON SMA TRACON (SMA)
02:04PM 42.3542 -83.2347 208° Southwest 140 161 3,900 -780 Descending FAA TRACON SMA TRACON (SMA)
02:04PM 42.3439 -83.2425 209° Southwest 138 159 3,600 -900 Descending FAA TRACON SMA TRACON (SMA)
02:05PM 42.3306 -83.2525 209° Southwest 141 162 3,300 -780 Descending FAA TRACON SMA TRACON (SMA)
02:05PM 42.3211 -83.2594 209° Southwest 138 159 3,100 -780 Descending FAA TRACON SMA TRACON (SMA)
02:05PM 42.3083 -83.2692 209° Southwest 147 169 2,800 -960 Descending FAA TRACON SMA TRACON (SMA)
02:06PM 42.2956 -83.2783 208° Southwest 143 165 2,500 -900 Descending FAA TRACON SMA TRACON (SMA)